sensor_id;sensor_type;location;lat;lon;timestamp;P1;durP1;ratioP1;P2;durP2;ratioP2
10979;SDS011;5543;51.734;8.744;2023-05-18T00:00:09;0.57;;;0.53;;
10979;SDS011;5543;51.734;8.744;2023-05-18T00:02:41;0.30;;;0.30;;
10979;SDS011;5543;51.734;8.744;2023-05-18T00:05:11;0.43;;;0.40;;
10979;SDS011;5543;51.734;8.744;2023-05-18T00:07:39;0.27;;;0.27;;
10979;SDS011;5543;51.734;8.744;2023-05-18T00:10:10;0.27;;;0.27;;
10979;SDS011;5543;51.734;8.744;2023-05-18T00:12:38;0.30;;;0.30;;
10979;SDS011;5543;51.734;8.744;2023-05-18T00:15:07;0.30;;;0.30;;
10979;SDS011;5543;51.734;8.744;2023-05-18T00:17:36;0.40;;;0.40;;
10979;SDS011;5543;51.734;8.744;2023-05-18T00:20:05;0.77;;;0.77;;
10979;SDS011;5543;51.734;8.744;2023-05-18T00:22:37;0.73;;;0.63;;
10979;SDS011;5543;51.734;8.744;2023-05-18T00:25:08;0.67;;;0.67;;
10979;SDS011;5543;51.734;8.744;2023-05-18T00:27:36;0.60;;;0.60;;
10979;SDS011;5543;51.734;8.744;2023-05-18T00:30:04;2.93;;;1.23;;
10979;SDS011;5543;51.734;8.744;2023-05-18T00:32:33;0.50;;;0.47;;
10979;SDS011;5543;51.734;8.744;2023-05-18T00:35:02;0.40;;;0.40;;
10979;SDS011;5543;51.734;8.744;2023-05-18T00:37:30;0.20;;;0.20;;
10979;SDS011;5543;51.734;8.744;2023-05-18T00:40:00;0.30;;;0.30;;
10979;SDS011;5543;51.734;8.744;2023-05-18T00:42:29;0.33;;;0.33;;
10979;SDS011;5543;51.734;8.744;2023-05-18T00:44:57;0.47;;;0.47;;
10979;SDS011;5543;51.734;8.744;2023-05-18T00:47:25;0.83;;;0.67;;
10979;SDS011;5543;51.734;8.744;2023-05-18T00:49:53;0.33;;;0.33;;
10979;SDS011;5543;51.734;8.744;2023-05-18T00:52:22;0.50;;;0.23;;
10979;SDS011;5543;51.734;8.744;2023-05-18T00:54:50;0.77;;;0.50;;
10979;SDS011;5543;51.734;8.744;2023-05-18T00:57:21;0.40;;;0.40;;
10979;SDS011;5543;51.734;8.744;2023-05-18T00:59:49;0.20;;;0.20;;
10979;SDS011;5543;51.734;8.744;2023-05-18T01:02:17;0.20;;;0.20;;
10979;SDS011;5543;51.734;8.744;2023-05-18T01:04:46;0.60;;;0.57;;
10979;SDS011;5543;51.734;8.744;2023-05-18T01:07:14;0.40;;;0.40;;
10979;SDS011;5543;51.734;8.744;2023-05-18T01:09:42;0.33;;;0.33;;
10979;SDS011;5543;51.734;8.744;2023-05-18T01:12:11;0.37;;;0.37;;
10979;SDS011;5543;51.734;8.744;2023-05-18T01:14:47;0.10;;;0.10;;
10979;SDS011;5543;51.734;8.744;2023-05-18T01:17:20;0.53;;;0.40;;
10979;SDS011;5543;51.734;8.744;2023-05-18T01:22:58;0.40;;;0.40;;
10979;SDS011;5543;51.734;8.744;2023-05-18T01:25:40;0.20;;;0.20;;
10979;SDS011;5543;51.734;8.744;2023-05-18T01:28:22;0.40;;;0.40;;
10979;SDS011;5543;51.734;8.744;2023-05-18T01:30:54;0.30;;;0.30;;
10979;SDS011;5543;51.734;8.744;2023-05-18T01:33:24;0.20;;;0.20;;
10979;SDS011;5543;51.734;8.744;2023-05-18T01:35:52;0.23;;;0.23;;
10979;SDS011;5543;51.734;8.744;2023-05-18T01:38:21;0.50;;;0.50;;
10979;SDS011;5543;51.734;8.744;2023-05-18T01:40:53;0.20;;;0.20;;
10979;SDS011;5543;51.734;8.744;2023-05-18T01:43:28;0.50;;;0.50;;
10979;SDS011;5543;51.734;8.744;2023-05-18T01:46:03;0.40;;;0.40;;
10979;SDS011;5543;51.734;8.744;2023-05-18T01:48:37;0.87;;;0.60;;
10979;SDS011;5543;51.734;8.744;2023-05-18T01:51:07;0.63;;;0.50;;
10979;SDS011;5543;51.734;8.744;2023-05-18T01:53:39;0.50;;;0.40;;
10979;SDS011;5543;51.734;8.744;2023-05-18T01:56:09;0.30;;;0.30;;
10979;SDS011;5543;51.734;8.744;2023-05-18T01:58:42;0.40;;;0.40;;
10979;SDS011;5543;51.734;8.744;2023-05-18T02:01:10;0.40;;;0.40;;
10979;SDS011;5543;51.734;8.744;2023-05-18T02:03:39;0.30;;;0.30;;
10979;SDS011;5543;51.734;8.744;2023-05-18T02:06:07;0.47;;;0.47;;
10979;SDS011;5543;51.734;8.744;2023-05-18T02:08:35;0.60;;;0.60;;
10979;SDS011;5543;51.734;8.744;2023-05-18T02:11:04;0.53;;;0.33;;
10979;SDS011;5543;51.734;8.744;2023-05-18T02:13:32;0.50;;;0.50;;
10979;SDS011;5543;51.734;8.744;2023-05-18T02:16:02;0.47;;;0.47;;
10979;SDS011;5543;51.734;8.744;2023-05-18T02:18:31;0.40;;;0.40;;
10979;SDS011;5543;51.734;8.744;2023-05-18T02:21:01;0.27;;;0.27;;
10979;SDS011;5543;51.734;8.744;2023-05-18T02:23:30;0.53;;;0.53;;
10979;SDS011;5543;51.734;8.744;2023-05-18T02:25:59;0.70;;;0.60;;
10979;SDS011;5543;51.734;8.744;2023-05-18T02:28:27;0.23;;;0.23;;
10979;SDS011;5543;51.734;8.744;2023-05-18T02:31:04;0.20;;;0.20;;
10979;SDS011;5543;51.734;8.744;2023-05-18T02:33:33;0.20;;;0.20;;
10979;SDS011;5543;51.734;8.744;2023-05-18T02:36:08;0.30;;;0.30;;
10979;SDS011;5543;51.734;8.744;2023-05-18T02:38:37;0.77;;;0.77;;
10979;SDS011;5543;51.734;8.744;2023-05-18T02:41:07;0.30;;;0.30;;
10979;SDS011;5543;51.734;8.744;2023-05-18T02:43:35;0.30;;;0.30;;
10979;SDS011;5543;51.734;8.744;2023-05-18T02:46:05;0.50;;;0.50;;
10979;SDS011;5543;51.734;8.744;2023-05-18T02:48:33;0.63;;;0.63;;
10979;SDS011;5543;51.734;8.744;2023-05-18T02:51:01;0.17;;;0.17;;
10979;SDS011;5543;51.734;8.744;2023-05-18T02:53:29;0.33;;;0.33;;
10979;SDS011;5543;51.734;8.744;2023-05-18T02:55:57;0.40;;;0.40;;
10979;SDS011;5543;51.734;8.744;2023-05-18T02:58:28;0.50;;;0.50;;
10979;SDS011;5543;51.734;8.744;2023-05-18T03:00:57;0.60;;;0.60;;
10979;SDS011;5543;51.734;8.744;2023-05-18T03:03:27;0.40;;;0.40;;
10979;SDS011;5543;51.734;8.744;2023-05-18T03:05:56;0.40;;;0.30;;
10979;SDS011;5543;51.734;8.744;2023-05-18T03:08:25;0.30;;;0.30;;
10979;SDS011;5543;51.734;8.744;2023-05-18T03:10:54;1.03;;;0.63;;
10979;SDS011;5543;51.734;8.744;2023-05-18T03:13:22;0.50;;;0.40;;
10979;SDS011;5543;51.734;8.744;2023-05-18T03:15:50;0.77;;;0.60;;
10979;SDS011;5543;51.734;8.744;2023-05-18T03:18:18;0.63;;;0.60;;
10979;SDS011;5543;51.734;8.744;2023-05-18T03:20:47;0.60;;;0.60;;
10979;SDS011;5543;51.734;8.744;2023-05-18T03:23:17;0.60;;;0.60;;
10979;SDS011;5543;51.734;8.744;2023-05-18T03:25:45;0.37;;;0.37;;
10979;SDS011;5543;51.734;8.744;2023-05-18T03:28:18;0.47;;;0.40;;
10979;SDS011;5543;51.734;8.744;2023-05-18T03:30:47;0.50;;;0.50;;
10979;SDS011;5543;51.734;8.744;2023-05-18T03:33:15;0.53;;;0.53;;
10979;SDS011;5543;51.734;8.744;2023-05-18T03:35:44;0.40;;;0.40;;
10979;SDS011;5543;51.734;8.744;2023-05-18T03:38:15;0.57;;;0.50;;
10979;SDS011;5543;51.734;8.744;2023-05-18T03:40:43;0.47;;;0.40;;
10979;SDS011;5543;51.734;8.744;2023-05-18T03:43:11;0.93;;;0.93;;
10979;SDS011;5543;51.734;8.744;2023-05-18T03:45:40;0.43;;;0.40;;
10979;SDS011;5543;51.734;8.744;2023-05-18T03:48:08;0.30;;;0.30;;
10979;SDS011;5543;51.734;8.744;2023-05-18T03:50:36;0.50;;;0.50;;
10979;SDS011;5543;51.734;8.744;2023-05-18T03:53:04;0.40;;;0.40;;
10979;SDS011;5543;51.734;8.744;2023-05-18T03:55:33;0.70;;;0.60;;
10979;SDS011;5543;51.734;8.744;2023-05-18T03:58:02;0.30;;;0.30;;
10979;SDS011;5543;51.734;8.744;2023-05-18T04:00:30;0.50;;;0.50;;
10979;SDS011;5543;51.734;8.744;2023-05-18T04:02:58;0.30;;;0.30;;
10979;SDS011;5543;51.734;8.744;2023-05-18T04:05:28;0.50;;;0.50;;
10979;SDS011;5543;51.734;8.744;2023-05-18T04:07:57;0.40;;;0.40;;
10979;SDS011;5543;51.734;8.744;2023-05-18T04:10:25;0.47;;;0.47;;
10979;SDS011;5543;51.734;8.744;2023-05-18T04:12:54;0.60;;;0.50;;
10979;SDS011;5543;51.734;8.744;2023-05-18T04:15:22;0.20;;;0.20;;
10979;SDS011;5543;51.734;8.744;2023-05-18T04:17:50;0.73;;;0.33;;
10979;SDS011;5543;51.734;8.744;2023-05-18T04:20:19;0.47;;;0.40;;
10979;SDS011;5543;51.734;8.744;2023-05-18T04:22:47;0.67;;;0.67;;
10979;SDS011;5543;51.734;8.744;2023-05-18T04:25:15;0.47;;;0.40;;
10979;SDS011;5543;51.734;8.744;2023-05-18T04:27:43;0.67;;;0.47;;
10979;SDS011;5543;51.734;8.744;2023-05-18T04:30:16;0.20;;;0.20;;
10979;SDS011;5543;51.734;8.744;2023-05-18T04:32:47;0.40;;;0.40;;
10979;SDS011;5543;51.734;8.744;2023-05-18T04:35:16;0.40;;;0.40;;
10979;SDS011;5543;51.734;8.744;2023-05-18T04:37:45;0.40;;;0.40;;
10979;SDS011;5543;51.734;8.744;2023-05-18T04:40:13;0.63;;;0.50;;
10979;SDS011;5543;51.734;8.744;2023-05-18T04:42:43;0.40;;;0.40;;
10979;SDS011;5543;51.734;8.744;2023-05-18T04:45:13;0.90;;;0.90;;
10979;SDS011;5543;51.734;8.744;2023-05-18T04:47:45;0.40;;;0.40;;
10979;SDS011;5543;51.734;8.744;2023-05-18T04:50:19;0.57;;;0.57;;
10979;SDS011;5543;51.734;8.744;2023-05-18T04:52:49;0.37;;;0.37;;
10979;SDS011;5543;51.734;8.744;2023-05-18T04:55:19;0.40;;;0.40;;
10979;SDS011;5543;51.734;8.744;2023-05-18T04:57:52;1.03;;;0.93;;
10979;SDS011;5543;51.734;8.744;2023-05-18T05:00:23;0.40;;;0.40;;
10979;SDS011;5543;51.734;8.744;2023-05-18T05:02:54;0.40;;;0.30;;
10979;SDS011;5543;51.734;8.744;2023-05-18T05:05:23;0.40;;;0.40;;
10979;SDS011;5543;51.734;8.744;2023-05-18T05:07:51;0.30;;;0.30;;
10979;SDS011;5543;51.734;8.744;2023-05-18T05:10:21;0.17;;;0.17;;
10979;SDS011;5543;51.734;8.744;2023-05-18T05:12:49;0.47;;;0.47;;
10979;SDS011;5543;51.734;8.744;2023-05-18T05:15:17;0.40;;;0.40;;
10979;SDS011;5543;51.734;8.744;2023-05-18T05:17:47;0.30;;;0.30;;
10979;SDS011;5543;51.734;8.744;2023-05-18T05:20:16;1.03;;;0.80;;
10979;SDS011;5543;51.734;8.744;2023-05-18T05:22:44;0.97;;;0.40;;
10979;SDS011;5543;51.734;8.744;2023-05-18T05:25:12;0.83;;;0.67;;
10979;SDS011;5543;51.734;8.744;2023-05-18T05:27:41;0.57;;;0.50;;
10979;SDS011;5543;51.734;8.744;2023-05-18T05:30:09;0.57;;;0.53;;
10979;SDS011;5543;51.734;8.744;2023-05-18T05:32:37;0.30;;;0.30;;
10979;SDS011;5543;51.734;8.744;2023-05-18T05:35:07;0.83;;;0.50;;
10979;SDS011;5543;51.734;8.744;2023-05-18T05:37:36;0.97;;;0.50;;
10979;SDS011;5543;51.734;8.744;2023-05-18T05:40:04;0.57;;;0.50;;
10979;SDS011;5543;51.734;8.744;2023-05-18T05:42:35;0.73;;;0.73;;
10979;SDS011;5543;51.734;8.744;2023-05-18T05:45:03;1.30;;;0.87;;
10979;SDS011;5543;51.734;8.744;2023-05-18T05:47:32;1.90;;;0.50;;
10979;SDS011;5543;51.734;8.744;2023-05-18T05:50:00;0.63;;;0.43;;
10979;SDS011;5543;51.734;8.744;2023-05-18T05:52:29;0.40;;;0.40;;
10979;SDS011;5543;51.734;8.744;2023-05-18T05:54:57;0.20;;;0.20;;
10979;SDS011;5543;51.734;8.744;2023-05-18T05:57:26;0.60;;;0.60;;
10979;SDS011;5543;51.734;8.744;2023-05-18T05:59:54;1.17;;;0.43;;
10979;SDS011;5543;51.734;8.744;2023-05-18T06:02:22;0.30;;;0.30;;
10979;SDS011;5543;51.734;8.744;2023-05-18T06:04:50;0.73;;;0.73;;
10979;SDS011;5543;51.734;8.744;2023-05-18T06:07:18;0.20;;;0.20;;
10979;SDS011;5543;51.734;8.744;2023-05-18T06:09:47;0.30;;;0.30;;
10979;SDS011;5543;51.734;8.744;2023-05-18T06:12:16;0.40;;;0.40;;
10979;SDS011;5543;51.734;8.744;2023-05-18T06:14:44;1.02;;;1.02;;
10979;SDS011;5543;51.734;8.744;2023-05-18T06:17:12;0.75;;;0.75;;
10979;SDS011;5543;51.734;8.744;2023-05-18T06:19:40;0.22;;;0.22;;
10979;SDS011;5543;51.734;8.744;2023-05-18T06:22:08;0.55;;;0.55;;
10979;SDS011;5543;51.734;8.744;2023-05-18T06:24:37;0.45;;;0.45;;
10979;SDS011;5543;51.734;8.744;2023-05-18T06:27:06;0.47;;;0.47;;
10979;SDS011;5543;51.734;8.744;2023-05-18T06:29:35;0.30;;;0.30;;
10979;SDS011;5543;51.734;8.744;2023-05-18T06:32:03;0.55;;;0.43;;
10979;SDS011;5543;51.734;8.744;2023-05-18T06:34:32;0.17;;;0.17;;
10979;SDS011;5543;51.734;8.744;2023-05-18T06:37:00;0.22;;;0.22;;
10979;SDS011;5543;51.734;8.744;2023-05-18T06:39:28;0.35;;;0.35;;
10979;SDS011;5543;51.734;8.744;2023-05-18T06:41:56;2.22;;;0.38;;
10979;SDS011;5543;51.734;8.744;2023-05-18T06:44:25;0.40;;;0.40;;
10979;SDS011;5543;51.734;8.744;2023-05-18T06:46:53;0.20;;;0.20;;
10979;SDS011;5543;51.734;8.744;2023-05-18T06:49:21;0.20;;;0.20;;
10979;SDS011;5543;51.734;8.744;2023-05-18T06:51:50;0.30;;;0.30;;
10979;SDS011;5543;51.734;8.744;2023-05-18T06:54:18;0.20;;;0.20;;
10979;SDS011;5543;51.734;8.744;2023-05-18T06:56:47;0.50;;;0.40;;
10979;SDS011;5543;51.734;8.744;2023-05-18T06:59:15;0.38;;;0.38;;
10979;SDS011;5543;51.734;8.744;2023-05-18T07:01:44;0.20;;;0.20;;
10979;SDS011;5543;51.734;8.744;2023-05-18T07:04:12;0.20;;;0.20;;
10979;SDS011;5543;51.734;8.744;2023-05-18T07:06:41;0.35;;;0.35;;
10979;SDS011;5543;51.734;8.744;2023-05-18T07:09:09;0.20;;;0.20;;
10979;SDS011;5543;51.734;8.744;2023-05-18T07:11:37;0.45;;;0.45;;
10979;SDS011;5543;51.734;8.744;2023-05-18T07:14:06;0.35;;;0.30;;
10979;SDS011;5543;51.734;8.744;2023-05-18T07:16:34;2.03;;;0.80;;
10979;SDS011;5543;51.734;8.744;2023-05-18T07:19:04;0.30;;;0.30;;
10979;SDS011;5543;51.734;8.744;2023-05-18T07:21:32;0.15;;;0.15;;
10979;SDS011;5543;51.734;8.744;2023-05-18T07:24:00;0.30;;;0.30;;
10979;SDS011;5543;51.734;8.744;2023-05-18T07:26:28;0.43;;;0.43;;
10979;SDS011;5543;51.734;8.744;2023-05-18T07:28:57;0.38;;;0.38;;
10979;SDS011;5543;51.734;8.744;2023-05-18T07:31:25;0.75;;;0.47;;
10979;SDS011;5543;51.734;8.744;2023-05-18T07:33:54;0.50;;;0.50;;
10979;SDS011;5543;51.734;8.744;2023-05-18T07:36:23;0.60;;;0.60;;
10979;SDS011;5543;51.734;8.744;2023-05-18T07:38:53;0.68;;;0.40;;
10979;SDS011;5543;51.734;8.744;2023-05-18T07:41:22;0.30;;;0.30;;
10979;SDS011;5543;51.734;8.744;2023-05-18T07:43:51;0.40;;;0.40;;
10979;SDS011;5543;51.734;8.744;2023-05-18T07:46:19;0.25;;;0.25;;
10979;SDS011;5543;51.734;8.744;2023-05-18T07:48:47;0.40;;;0.40;;
10979;SDS011;5543;51.734;8.744;2023-05-18T07:51:15;0.38;;;0.38;;
10979;SDS011;5543;51.734;8.744;2023-05-18T07:53:45;0.43;;;0.43;;
10979;SDS011;5543;51.734;8.744;2023-05-18T07:56:13;2.15;;;0.80;;
10979;SDS011;5543;51.734;8.744;2023-05-18T07:58:41;0.60;;;0.60;;
10979;SDS011;5543;51.734;8.744;2023-05-18T08:01:09;0.20;;;0.20;;
10979;SDS011;5543;51.734;8.744;2023-05-18T08:03:38;1.00;;;0.73;;
10979;SDS011;5543;51.734;8.744;2023-05-18T08:06:06;0.50;;;0.50;;
10979;SDS011;5543;51.734;8.744;2023-05-18T08:08:34;1.27;;;0.40;;
10979;SDS011;5543;51.734;8.744;2023-05-18T08:11:04;0.22;;;0.22;;
10979;SDS011;5543;51.734;8.744;2023-05-18T08:13:32;0.63;;;0.43;;
10979;SDS011;5543;51.734;8.744;2023-05-18T08:16:01;1.75;;;0.45;;
10979;SDS011;5543;51.734;8.744;2023-05-18T08:18:35;0.40;;;0.40;;
10979;SDS011;5543;51.734;8.744;2023-05-18T08:21:03;1.02;;;0.70;;
10979;SDS011;5543;51.734;8.744;2023-05-18T08:23:33;0.40;;;0.40;;
10979;SDS011;5543;51.734;8.744;2023-05-18T08:26:01;0.60;;;0.60;;
10979;SDS011;5543;51.734;8.744;2023-05-18T08:28:31;2.28;;;0.65;;
10979;SDS011;5543;51.734;8.744;2023-05-18T08:30:59;0.95;;;0.82;;
10979;SDS011;5543;51.734;8.744;2023-05-18T08:33:27;0.70;;;0.52;;
10979;SDS011;5543;51.734;8.744;2023-05-18T08:35:57;1.48;;;0.50;;
10979;SDS011;5543;51.734;8.744;2023-05-18T08:38:26;1.27;;;0.95;;
10979;SDS011;5543;51.734;8.744;2023-05-18T08:40:57;1.08;;;0.90;;
10979;SDS011;5543;51.734;8.744;2023-05-18T08:43:35;1.17;;;0.80;;
10979;SDS011;5543;51.734;8.744;2023-05-18T08:46:09;0.60;;;0.60;;
10979;SDS011;5543;51.734;8.744;2023-05-18T08:48:46;1.73;;;0.88;;
10979;SDS011;5543;51.734;8.744;2023-05-18T08:51:19;2.80;;;1.00;;
10979;SDS011;5543;51.734;8.744;2023-05-18T08:53:50;1.33;;;1.00;;
10979;SDS011;5543;51.734;8.744;2023-05-18T08:56:20;1.17;;;0.80;;
10979;SDS011;5543;51.734;8.744;2023-05-18T08:58:53;2.17;;;0.90;;
10979;SDS011;5543;51.734;8.744;2023-05-18T09:01:23;1.42;;;1.15;;
10979;SDS011;5543;51.734;8.744;2023-05-18T09:03:55;1.13;;;1.02;;
10979;SDS011;5543;51.734;8.744;2023-05-18T09:06:25;1.20;;;0.85;;
10979;SDS011;5543;51.734;8.744;2023-05-18T09:08:54;2.15;;;0.85;;
10979;SDS011;5543;51.734;8.744;2023-05-18T09:11:25;0.60;;;0.60;;
10979;SDS011;5543;51.734;8.744;2023-05-18T09:13:55;1.00;;;0.90;;
10979;SDS011;5543;51.734;8.744;2023-05-18T09:16:23;0.70;;;0.70;;
10979;SDS011;5543;51.734;8.744;2023-05-18T09:18:52;0.70;;;0.70;;
10979;SDS011;5543;51.734;8.744;2023-05-18T09:21:20;0.90;;;0.70;;
10979;SDS011;5543;51.734;8.744;2023-05-18T09:23:48;2.47;;;0.82;;
10979;SDS011;5543;51.734;8.744;2023-05-18T09:26:17;0.77;;;0.77;;
10979;SDS011;5543;51.734;8.744;2023-05-18T09:28:46;1.05;;;0.98;;
10979;SDS011;5543;51.734;8.744;2023-05-18T09:31:20;1.63;;;1.10;;
10979;SDS011;5543;51.734;8.744;2023-05-18T09:33:50;1.60;;;0.98;;
10979;SDS011;5543;51.734;8.744;2023-05-18T09:36:23;0.82;;;0.70;;
10979;SDS011;5543;51.734;8.744;2023-05-18T09:38:54;1.80;;;1.10;;
10979;SDS011;5543;51.734;8.744;2023-05-18T09:41:25;0.75;;;0.75;;
10979;SDS011;5543;51.734;8.744;2023-05-18T09:43:53;0.93;;;0.80;;
10979;SDS011;5543;51.734;8.744;2023-05-18T09:46:23;0.90;;;0.90;;
10979;SDS011;5543;51.734;8.744;2023-05-18T09:48:52;0.90;;;0.90;;
10979;SDS011;5543;51.734;8.744;2023-05-18T09:51:21;0.77;;;0.77;;
10979;SDS011;5543;51.734;8.744;2023-05-18T09:53:52;0.85;;;0.85;;
10979;SDS011;5543;51.734;8.744;2023-05-18T09:56:21;0.82;;;0.75;;
10979;SDS011;5543;51.734;8.744;2023-05-18T09:58:50;0.60;;;0.60;;
10979;SDS011;5543;51.734;8.744;2023-05-18T10:01:19;1.13;;;0.85;;
10979;SDS011;5543;51.734;8.744;2023-05-18T10:03:48;1.02;;;0.80;;
10979;SDS011;5543;51.734;8.744;2023-05-18T10:06:18;1.35;;;0.90;;
10979;SDS011;5543;51.734;8.744;2023-05-18T10:08:52;0.80;;;0.80;;
10979;SDS011;5543;51.734;8.744;2023-05-18T10:11:23;1.30;;;1.00;;
10979;SDS011;5543;51.734;8.744;2023-05-18T10:13:53;2.08;;;1.90;;
10979;SDS011;5543;51.734;8.744;2023-05-18T10:16:22;1.02;;;1.00;;
10979;SDS011;5543;51.734;8.744;2023-05-18T10:18:52;1.63;;;1.00;;
10979;SDS011;5543;51.734;8.744;2023-05-18T10:21:21;1.38;;;1.05;;
10979;SDS011;5543;51.734;8.744;2023-05-18T10:23:54;3.08;;;1.48;;
10979;SDS011;5543;51.734;8.744;2023-05-18T10:26:22;1.10;;;1.00;;
10979;SDS011;5543;51.734;8.744;2023-05-18T10:28:54;1.25;;;1.23;;
10979;SDS011;5543;51.734;8.744;2023-05-18T10:31:25;1.08;;;0.98;;
10979;SDS011;5543;51.734;8.744;2023-05-18T10:33:58;0.85;;;0.77;;
10979;SDS011;5543;51.734;8.744;2023-05-18T10:36:26;2.85;;;1.10;;
10979;SDS011;5543;51.734;8.744;2023-05-18T10:38:58;1.17;;;0.88;;
10979;SDS011;5543;51.734;8.744;2023-05-18T10:41:27;0.80;;;0.80;;
10979;SDS011;5543;51.734;8.744;2023-05-18T10:43:57;1.00;;;0.88;;
10979;SDS011;5543;51.734;8.744;2023-05-18T10:46:29;1.88;;;1.23;;
10979;SDS011;5543;51.734;8.744;2023-05-18T10:48:59;1.58;;;0.82;;
10979;SDS011;5543;51.734;8.744;2023-05-18T10:51:30;3.38;;;1.27;;
10979;SDS011;5543;51.734;8.744;2023-05-18T10:54:10;0.70;;;0.70;;
10979;SDS011;5543;51.734;8.744;2023-05-18T10:56:39;0.73;;;0.73;;
10979;SDS011;5543;51.734;8.744;2023-05-18T10:59:10;0.77;;;0.77;;
10979;SDS011;5543;51.734;8.744;2023-05-18T11:01:40;0.85;;;0.82;;
10979;SDS011;5543;51.734;8.744;2023-05-18T11:04:11;1.08;;;0.90;;
10979;SDS011;5543;51.734;8.744;2023-05-18T11:06:39;1.23;;;0.82;;
10979;SDS011;5543;51.734;8.744;2023-05-18T11:09:08;1.55;;;1.10;;
10979;SDS011;5543;51.734;8.744;2023-05-18T11:11:50;1.70;;;1.00;;
10979;SDS011;5543;51.734;8.744;2023-05-18T11:14:26;2.28;;;1.17;;
10979;SDS011;5543;51.734;8.744;2023-05-18T11:22:46;0.90;;;0.85;;
10979;SDS011;5543;51.734;8.744;2023-05-18T11:25:35;0.90;;;0.88;;
10979;SDS011;5543;51.734;8.744;2023-05-18T11:28:05;1.25;;;0.93;;
10979;SDS011;5543;51.734;8.744;2023-05-18T11:30:47;1.63;;;0.82;;
10979;SDS011;5543;51.734;8.744;2023-05-18T11:33:24;1.33;;;1.08;;
10979;SDS011;5543;51.734;8.744;2023-05-18T11:36:08;0.90;;;0.90;;
10979;SDS011;5543;51.734;8.744;2023-05-18T11:38:50;4.40;;;1.20;;
10979;SDS011;5543;51.734;8.744;2023-05-18T11:41:26;1.00;;;1.00;;
10979;SDS011;5543;51.734;8.744;2023-05-18T11:44:05;0.85;;;0.80;;
10979;SDS011;5543;51.734;8.744;2023-05-18T11:46:52;1.30;;;0.93;;
10979;SDS011;5543;51.734;8.744;2023-05-18T11:49:22;1.15;;;1.05;;
10979;SDS011;5543;51.734;8.744;2023-05-18T11:51:59;1.75;;;1.00;;
10979;SDS011;5543;51.734;8.744;2023-05-18T11:54:39;0.80;;;0.80;;
10979;SDS011;5543;51.734;8.744;2023-05-18T11:57:09;1.05;;;0.98;;
10979;SDS011;5543;51.734;8.744;2023-05-18T11:59:39;1.10;;;1.00;;
10979;SDS011;5543;51.734;8.744;2023-05-18T12:02:08;2.35;;;1.27;;
10979;SDS011;5543;51.734;8.744;2023-05-18T12:04:41;0.73;;;0.73;;
10979;SDS011;5543;51.734;8.744;2023-05-18T12:07:13;2.67;;;1.00;;
10979;SDS011;5543;51.734;8.744;2023-05-18T12:09:42;1.02;;;0.95;;
10979;SDS011;5543;51.734;8.744;2023-05-18T12:12:11;1.05;;;0.95;;
10979;SDS011;5543;51.734;8.744;2023-05-18T12:14:42;1.27;;;0.73;;
10979;SDS011;5543;51.734;8.744;2023-05-18T12:17:12;1.27;;;0.82;;
10979;SDS011;5543;51.734;8.744;2023-05-18T12:19:40;1.00;;;0.90;;
10979;SDS011;5543;51.734;8.744;2023-05-18T12:22:09;2.38;;;1.00;;
10979;SDS011;5543;51.734;8.744;2023-05-18T12:24:40;1.15;;;0.80;;
10979;SDS011;5543;51.734;8.744;2023-05-18T12:27:10;0.65;;;0.65;;
10979;SDS011;5543;51.734;8.744;2023-05-18T12:29:39;2.22;;;1.08;;
10979;SDS011;5543;51.734;8.744;2023-05-18T12:32:08;0.90;;;0.80;;
10979;SDS011;5543;51.734;8.744;2023-05-18T12:34:38;1.52;;;0.88;;
10979;SDS011;5543;51.734;8.744;2023-05-18T12:37:07;2.75;;;0.95;;
10979;SDS011;5543;51.734;8.744;2023-05-18T12:39:35;0.73;;;0.73;;
10979;SDS011;5543;51.734;8.744;2023-05-18T12:42:09;0.90;;;0.90;;
10979;SDS011;5543;51.734;8.744;2023-05-18T12:44:40;1.98;;;0.82;;
10979;SDS011;5543;51.734;8.744;2023-05-18T12:47:10;2.40;;;1.40;;
10979;SDS011;5543;51.734;8.744;2023-05-18T12:49:40;1.10;;;1.10;;
10979;SDS011;5543;51.734;8.744;2023-05-18T12:52:10;2.70;;;1.27;;
10979;SDS011;5543;51.734;8.744;2023-05-18T12:54:48;2.40;;;1.52;;
10979;SDS011;5543;51.734;8.744;2023-05-18T12:57:23;1.35;;;1.25;;
10979;SDS011;5543;51.734;8.744;2023-05-18T12:59:52;1.77;;;0.88;;
10979;SDS011;5543;51.734;8.744;2023-05-18T13:02:26;1.85;;;1.13;;
10979;SDS011;5543;51.734;8.744;2023-05-18T13:05:00;1.17;;;1.17;;
10979;SDS011;5543;51.734;8.744;2023-05-18T13:07:36;1.10;;;1.08;;
10979;SDS011;5543;51.734;8.744;2023-05-18T13:10:07;1.58;;;1.10;;
10979;SDS011;5543;51.734;8.744;2023-05-18T13:12:43;2.08;;;0.80;;
10979;SDS011;5543;51.734;8.744;2023-05-18T13:15:13;0.80;;;0.75;;
10979;SDS011;5543;51.734;8.744;2023-05-18T13:17:56;0.80;;;0.80;;
10979;SDS011;5543;51.734;8.744;2023-05-18T13:20:33;1.95;;;0.90;;
10979;SDS011;5543;51.734;8.744;2023-05-18T13:23:06;1.58;;;0.82;;
10979;SDS011;5543;51.734;8.744;2023-05-18T13:25:35;0.65;;;0.65;;
10979;SDS011;5543;51.734;8.744;2023-05-18T13:28:05;1.08;;;0.98;;
10979;SDS011;5543;51.734;8.744;2023-05-18T13:30:36;1.00;;;0.90;;
10979;SDS011;5543;51.734;8.744;2023-05-18T13:33:04;1.60;;;0.98;;
10979;SDS011;5543;51.734;8.744;2023-05-18T13:35:34;1.23;;;0.85;;
10979;SDS011;5543;51.734;8.744;2023-05-18T13:38:03;0.80;;;0.80;;
10979;SDS011;5543;51.734;8.744;2023-05-18T13:40:31;1.48;;;0.88;;
10979;SDS011;5543;51.734;8.744;2023-05-18T13:43:00;1.02;;;1.02;;
10979;SDS011;5543;51.734;8.744;2023-05-18T13:45:29;1.58;;;0.73;;
10979;SDS011;5543;51.734;8.744;2023-05-18T13:47:58;3.53;;;1.08;;
10979;SDS011;5543;51.734;8.744;2023-05-18T13:50:27;0.80;;;0.80;;
10979;SDS011;5543;51.734;8.744;2023-05-18T13:52:55;0.80;;;0.80;;
10979;SDS011;5543;51.734;8.744;2023-05-18T13:55:23;0.80;;;0.80;;
10979;SDS011;5543;51.734;8.744;2023-05-18T13:57:52;1.08;;;0.98;;
10979;SDS011;5543;51.734;8.744;2023-05-18T14:00:20;1.40;;;0.90;;
10979;SDS011;5543;51.734;8.744;2023-05-18T14:02:49;1.65;;;0.75;;
10979;SDS011;5543;51.734;8.744;2023-05-18T14:05:19;2.13;;;0.73;;
10979;SDS011;5543;51.734;8.744;2023-05-18T14:07:47;4.25;;;1.20;;
10979;SDS011;5543;51.734;8.744;2023-05-18T14:10:17;1.73;;;0.90;;
10979;SDS011;5543;51.734;8.744;2023-05-18T14:12:46;1.42;;;0.90;;
10979;SDS011;5543;51.734;8.744;2023-05-18T14:15:14;1.48;;;1.02;;
10979;SDS011;5543;51.734;8.744;2023-05-18T14:17:42;1.98;;;1.10;;
10979;SDS011;5543;51.734;8.744;2023-05-18T14:20:12;1.27;;;0.80;;
10979;SDS011;5543;51.734;8.744;2023-05-18T14:22:41;1.20;;;0.70;;
10979;SDS011;5543;51.734;8.744;2023-05-18T14:25:09;1.67;;;1.23;;
10979;SDS011;5543;51.734;8.744;2023-05-18T14:27:38;1.00;;;0.82;;
10979;SDS011;5543;51.734;8.744;2023-05-18T14:30:07;0.98;;;0.88;;
10979;SDS011;5543;51.734;8.744;2023-05-18T14:32:38;0.95;;;0.95;;
10979;SDS011;5543;51.734;8.744;2023-05-18T14:35:08;3.05;;;1.00;;
10979;SDS011;5543;51.734;8.744;2023-05-18T14:37:39;1.10;;;0.90;;
10979;SDS011;5543;51.734;8.744;2023-05-18T14:40:09;2.42;;;1.20;;
10979;SDS011;5543;51.734;8.744;2023-05-18T14:42:39;1.42;;;1.02;;
10979;SDS011;5543;51.734;8.744;2023-05-18T14:45:08;0.70;;;0.70;;
10979;SDS011;5543;51.734;8.744;2023-05-18T14:47:37;1.38;;;0.90;;
10979;SDS011;5543;51.734;8.744;2023-05-18T14:50:07;2.05;;;1.05;;
10979;SDS011;5543;51.734;8.744;2023-05-18T14:52:36;1.10;;;0.98;;
10979;SDS011;5543;51.734;8.744;2023-05-18T14:55:06;3.33;;;1.30;;
10979;SDS011;5543;51.734;8.744;2023-05-18T14:57:35;0.60;;;0.60;;
10979;SDS011;5543;51.734;8.744;2023-05-18T15:00:04;0.70;;;0.70;;
10979;SDS011;5543;51.734;8.744;2023-05-18T15:02:33;1.08;;;1.00;;
10979;SDS011;5543;51.734;8.744;2023-05-18T15:05:01;0.77;;;0.77;;
10979;SDS011;5543;51.734;8.744;2023-05-18T15:07:30;1.20;;;1.00;;
10979;SDS011;5543;51.734;8.744;2023-05-18T15:09:58;0.75;;;0.75;;
10979;SDS011;5543;51.734;8.744;2023-05-18T15:12:28;0.70;;;0.70;;
10979;SDS011;5543;51.734;8.744;2023-05-18T15:14:56;1.13;;;1.00;;
10979;SDS011;5543;51.734;8.744;2023-05-18T15:17:25;1.10;;;1.00;;
10979;SDS011;5543;51.734;8.744;2023-05-18T15:19:53;1.33;;;0.90;;
10979;SDS011;5543;51.734;8.744;2023-05-18T15:22:21;1.20;;;0.98;;
10979;SDS011;5543;51.734;8.744;2023-05-18T15:24:49;0.93;;;0.93;;